Estación Meteorológica Peña el Pijo (Robertgarden) [ 09/26/18 04:46:44 CEST ]

Fecha Hora Presion(HPa) Temp (°C) Humedad % Rocio (°C) Viento ( m/s) Direccion Lluvia 1Hora(mm) Lluvia 24H(mm) LLuvia Total(mm)
2018-Sep-15 01:01:41 1012.600 15.1 80 11.7         344.98
2018-Sep-15 02:01:46 1012.700 14.9 82 11.9         344.98
2018-Sep-15 03:01:59 1012.400 15.8 83 12.9         344.98
2018-Sep-15 04:01:53 1011.900 15.5 81 12.3         344.98
2018-Sep-15 05:02:17 1011.300 14.6 83 11.7         344.98
2018-Sep-15 06:02:16 1011.400 14.7 84 12.0         344.98
2018-Sep-15 07:01:46 1011.300 14.9 85 12.4         344.98
2018-Sep-15 08:01:35 1011.600 15.3 85 12.8         344.98
2018-Sep-15 09:01:39 1012.000 15.5 85 13.0         344.98
2018-Sep-15 10:01:37 1012.500 14.6 87 12.5     3.62 3.62 348.61
2018-Sep-15 11:01:39 1013.200 14.9 88 12.9     1.03 5.18 350.16
2018-Sep-15 12:01:33 1013.200 16.0 89 14.2       5.69 350.68
2018-Sep-15 13:01:35 1013.300 16.1 89 14.3       5.69 350.68
2018-Sep-15 14:01:46 1013.400 16.1 88 14.1       5.69 350.68
2018-Sep-15 15:01:46 1013.000 16.6 88 14.6       5.69 350.68
2018-Sep-15 16:01:46 1013.000 16.8 87 14.6       5.69 350.68
2018-Sep-15 17:01:43 1012.800 19.2 84 16.4       5.69 350.68
2018-Sep-15 18:01:51 1012.800 18.4 81 15.1       5.69 350.68
2018-Sep-15 19:01:41 1012.800 17.9 83 15.0       5.69 350.68
2018-Sep-15 20:01:22 1013.000 16.7 84 14.0       5.69 350.68
2018-Sep-15 21:01:42 1013.600 15.1 86 12.8       5.69 350.68
2018-Sep-15 22:01:36 1014.200 14.2 87 12.1       5.69 350.68
2018-Sep-15 23:01:39 1014.400 13.5 88 11.5       5.69 350.68

Temperatura Máxima:19°    Temperatura Mínima:13°
Presión Máxima:1014.400 Hpa    Presión Mínima:1011.300 Hpa


Volver